createdAt,value
2019-05-02T07:08:14.266Z,99565.92
2019-05-02T07:10:45.475Z,99571.84
2019-05-02T07:13:18.479Z,99576.63
2019-05-02T07:16:10.325Z,99570.44
2019-05-02T07:18:47.394Z,99570.06
2019-05-02T07:21:23.419Z,99572.54
2019-05-02T07:23:53.518Z,99566.70
2019-05-02T07:26:26.412Z,99580.53
2019-05-02T07:28:57.261Z,99576.47
2019-05-02T07:31:28.034Z,99577.94
2019-05-02T07:34:08.029Z,99579.98
2019-05-02T07:36:38.418Z,99580.89
2019-05-02T07:39:10.863Z,99580.11
2019-05-02T07:41:43.006Z,99597.61
2019-05-02T07:44:15.465Z,99585.25
2019-05-02T07:46:51.893Z,99599.49
2019-05-02T07:49:21.005Z,99598.03
2019-05-02T07:51:57.627Z,99606.64
2019-05-02T07:54:26.643Z,99602.06
2019-05-02T07:56:57.541Z,99609.73
2019-05-02T07:59:30.012Z,99619.58
2019-05-02T08:02:02.452Z,99629.08
2019-05-02T08:04:34.539Z,99629.33
2019-05-02T08:07:05.678Z,99630.19
2019-05-02T08:09:39.134Z,99636.55
2019-05-02T08:12:10.426Z,99629.62
2019-05-02T08:14:42.493Z,99636.27
2019-05-02T08:17:16.979Z,99640.80
2019-05-02T08:19:45.799Z,99639.68
2019-05-02T08:22:16.732Z,99638.64
2019-05-02T08:24:47.674Z,99631.73
2019-05-02T08:27:24.156Z,99630.23
2019-05-02T08:29:55.439Z,99632.31
2019-05-02T08:32:27.682Z,99633.92
2019-05-02T08:35:02.076Z,99642.09
2019-05-02T08:37:40.697Z,99636.37
2019-05-02T08:40:10.598Z,99640.17
2019-05-02T08:42:41.021Z,99633.82
2019-05-02T08:45:12.676Z,99633.25
2019-05-02T08:47:44.740Z,99635.07
2019-05-02T08:50:15.682Z,99635.71
2019-05-02T08:52:48.162Z,99635.03
2019-05-02T08:55:19.399Z,99643.89
2019-05-02T08:57:50.132Z,99640.97
2019-05-02T09:00:21.474Z,99638.27
2019-05-02T09:02:52.309Z,99647.04
2019-05-02T09:05:24.492Z,99644.38
2019-05-02T09:07:55.338Z,99637.23
2019-05-02T09:10:26.155Z,99641.81
2019-05-02T09:13:02.632Z,99655.12
2019-05-02T09:15:35.239Z,99651.41
2019-05-02T09:18:06.676Z,99645.17
2019-05-02T09:20:39.122Z,99664.67
2019-05-02T09:23:12.412Z,99661.78
2019-05-02T09:25:43.895Z,99664.59
2019-05-02T09:28:17.063Z,99667.75
2019-05-02T09:30:48.683Z,99659.88
2019-05-02T09:33:20.050Z,99657.69
2019-05-02T09:35:51.616Z,99663.17
2019-05-02T09:38:23.975Z,99669.53
2019-05-02T09:40:56.383Z,99665.66
2019-05-02T09:43:29.277Z,99670.39
2019-05-02T09:45:59.644Z,99644.70
2019-05-02T09:48:32.114Z,99665.59
2019-05-02T09:51:12.514Z,99667.83
2019-05-02T09:53:37.264Z,99668.23
2019-05-02T09:56:09.408Z,99671.31
2019-05-02T09:58:42.049Z,99676.81
2019-05-02T10:01:34.608Z,99676.60
2019-05-02T10:04:08.127Z,99666.35
2019-05-02T10:06:42.371Z,99662.03
2019-05-02T10:09:12.694Z,99665.51
2019-05-02T10:11:43.731Z,99664.36
2019-05-02T10:14:15.385Z,99679.39
2019-05-02T10:16:47.258Z,99673.09
2019-05-02T10:19:25.898Z,99664.84
2019-05-02T10:21:56.552Z,99668.36
2019-05-02T10:24:27.775Z,99677.69
2019-05-02T10:27:04.131Z,99688.52
2019-05-02T10:29:33.723Z,99684.35
2019-05-02T10:32:07.452Z,99691.13
2019-05-02T10:34:42.196Z,99708.88
2019-05-02T10:37:14.101Z,99697.49
2019-05-02T10:39:47.795Z,99714.59
2019-05-02T10:42:21.964Z,99696.61
2019-05-02T10:44:53.461Z,99709.98
2019-05-02T10:47:24.763Z,99689.16
2019-05-02T10:49:57.978Z,99697.81
2019-05-02T10:52:33.968Z,99684.57
2019-05-02T10:55:02.757Z,99701.33
2019-05-02T10:57:33.678Z,99695.88
2019-05-02T11:00:13.704Z,99705.61
2019-05-02T11:02:56.434Z,99698.94
2019-05-02T11:05:28.712Z,99704.97
2019-05-02T11:08:06.234Z,99704.33
2019-05-02T11:10:38.767Z,99693.50
2019-05-02T11:13:28.362Z,99687.05
2019-05-02T11:16:17.416Z,99692.38
2019-05-02T11:18:53.569Z,99685.95
2019-05-02T11:21:24.743Z,99690.58
2019-05-02T11:23:57.168Z,99692.67
2019-05-02T11:26:28.118Z,99704.28
2019-05-02T11:29:02.755Z,99723.55
2019-05-02T11:31:32.767Z,99722.25
2019-05-02T11:34:04.233Z,99720.16
2019-05-02T11:36:36.324Z,99737.90
2019-05-02T11:39:18.953Z,99731.24
2019-05-02T11:41:42.857Z,99732.84
2019-05-02T11:44:13.464Z,99733.17
2019-05-02T11:46:46.942Z,99731.95
2019-05-02T11:49:17.327Z,99737.10
2019-05-02T11:51:52.618Z,99717.32
2019-05-02T11:54:27.733Z,99721.96
2019-05-02T11:56:55.039Z,99725.42
2019-05-02T11:59:27.975Z,99723.27
2019-05-02T12:02:09.417Z,99737.81
2019-05-02T12:04:47.316Z,99748.99
2019-05-02T12:07:17.017Z,99747.81
2019-05-02T12:09:55.458Z,99767.09
2019-05-02T12:12:22.742Z,99752.91
2019-05-02T12:14:56.600Z,99746.62
2019-05-02T12:17:30.082Z,99750.19
2019-05-02T12:20:02.448Z,99748.66
2019-05-02T12:22:35.047Z,99742.37
2019-05-02T12:25:07.198Z,99738.42
2019-05-02T12:27:39.369Z,99742.17
2019-05-02T12:30:13.252Z,99730.25
2019-05-02T12:32:44.004Z,99730.05
2019-05-02T12:35:15.769Z,99723.23
2019-05-02T12:37:53.970Z,99732.38
2019-05-02T12:40:24.060Z,99741.98
2019-05-02T12:42:56.168Z,99736.20
2019-05-02T12:45:28.129Z,99733.73
2019-05-02T12:48:02.245Z,99726.25
2019-05-02T12:50:34.892Z,99721.63
2019-05-02T12:53:05.850Z,99715.57
2019-05-02T12:55:38.543Z,99723.55
2019-05-02T12:58:12.510Z,99715.19
2019-05-02T13:00:43.657Z,99722.75
2019-05-02T13:03:18.685Z,99726.33
2019-05-02T13:05:52.124Z,99727.55
2019-05-02T13:08:25.301Z,99743.95
2019-05-02T13:11:02.093Z,99739.09
2019-05-02T13:13:29.811Z,99746.45
2019-05-02T13:16:03.500Z,99748.50
2019-05-02T13:18:37.118Z,99741.06
2019-05-02T13:21:13.388Z,99756.28
2019-05-02T13:23:53.124Z,99750.52
2019-05-02T13:26:27.237Z,99720.10
2019-05-02T13:28:58.791Z,99728.04
2019-05-02T13:31:33.923Z,99728.46
2019-05-02T13:34:16.536Z,99729.05
2019-05-02T13:36:52.899Z,99725.38
2019-05-02T13:39:26.531Z,99729.01
2019-05-02T13:41:57.125Z,99724.27
2019-05-02T13:44:33.227Z,99722.30
2019-05-02T13:47:05.954Z,99730.12
2019-05-02T13:49:51.441Z,99748.55
2019-05-02T13:52:16.424Z,99731.23
2019-05-02T13:54:58.949Z,99761.16
2019-05-02T13:57:35.057Z,99745.36
2019-05-02T14:00:03.279Z,99728.69
2019-05-02T14:02:42.802Z,99733.06
2019-05-02T14:05:16.135Z,99737.40
2019-05-02T14:07:57.094Z,99727.36
2019-05-02T14:10:32.126Z,99725.00
2019-05-02T14:13:03.685Z,99714.75
2019-05-02T14:15:36.351Z,99721.94
2019-05-02T14:18:08.188Z,99722.16
2019-05-02T14:20:39.602Z,99738.46
2019-05-02T14:23:12.842Z,99724.21
2019-05-02T14:25:45.516Z,99719.14
2019-05-02T14:28:16.864Z,99722.30
2019-05-02T14:30:47.423Z,99714.33
2019-05-02T14:33:26.734Z,99703.58
2019-05-02T14:35:58.791Z,99709.31
2019-05-02T14:38:32.012Z,99722.54
2019-05-02T14:41:13.257Z,99725.70
2019-05-02T14:43:54.032Z,99714.20
2019-05-02T14:46:35.392Z,99707.58
2019-05-02T14:49:02.937Z,99712.32
2019-05-02T14:51:36.981Z,99707.56
2019-05-02T14:54:09.587Z,99695.95
2019-05-02T14:56:46.288Z,99699.97
2019-05-02T14:59:19.876Z,99695.17
2019-05-02T15:01:52.765Z,99685.83
2019-05-02T15:04:24.793Z,99692.28
2019-05-02T15:06:58.062Z,99692.14
2019-05-02T15:09:32.666Z,99686.09
2019-05-02T15:12:08.254Z,99677.14
2019-05-02T15:14:49.729Z,99675.38
2019-05-02T15:17:22.740Z,99681.95
2019-05-02T15:19:55.488Z,99692.28
2019-05-02T15:22:27.621Z,99692.98
2019-05-02T15:25:00.137Z,99689.84
2019-05-02T15:27:40.143Z,99695.57
2019-05-02T15:30:08.146Z,99691.86
2019-05-02T15:32:46.427Z,99686.55
2019-05-02T15:35:29.375Z,99701.98
2019-05-02T15:38:02.558Z,99693.47
2019-05-02T15:40:48.139Z,99682.30
2019-05-02T15:43:12.636Z,99684.77
2019-05-02T15:45:45.225Z,99679.55
2019-05-02T15:48:25.538Z,99678.45
2019-05-02T15:50:54.590Z,99698.23
2019-05-02T15:53:39.029Z,99704.11
2019-05-02T15:56:18.763Z,99707.04
2019-05-02T15:58:42.588Z,99707.38
2019-05-02T16:01:18.891Z,99714.02
2019-05-02T16:03:54.638Z,99733.06
2019-05-02T16:06:31.744Z,99726.98
2019-05-02T16:09:02.444Z,99726.98
2019-05-02T16:11:34.821Z,99728.77
2019-05-02T16:14:05.980Z,99739.70
2019-05-02T16:16:40.776Z,99754.23
2019-05-02T16:19:16.578Z,99765.13
2019-05-02T16:21:53.624Z,99744.81
2019-05-02T16:24:28.856Z,99759.63
2019-05-02T16:27:01.607Z,99761.78
2019-05-02T16:29:33.605Z,99760.81
2019-05-02T16:32:09.326Z,99771.31
2019-05-02T16:34:54.542Z,99768.58
2019-05-02T16:37:24.469Z,99763.47
2019-05-02T16:39:54.958Z,99771.81
2019-05-02T16:42:26.100Z,99770.55
2019-05-02T16:44:58.574Z,99774.84
2019-05-02T16:47:29.318Z,99779.82
2019-05-02T16:50:02.728Z,99784.62
2019-05-02T16:52:38.053Z,99780.66
2019-05-02T16:55:13.627Z,99794.05
2019-05-02T16:57:42.393Z,99795.44
2019-05-02T17:00:19.850Z,99805.42
2019-05-02T17:02:51.364Z,99804.64
2019-05-02T17:05:24.300Z,99807.52
2019-05-02T17:07:59.385Z,99813.27
2019-05-02T17:10:42.362Z,99810.14
2019-05-02T17:13:14.830Z,99819.33
2019-05-02T17:15:45.567Z,99823.06
2019-05-02T17:18:18.251Z,99824.80
2019-05-02T17:20:54.954Z,99826.69
2019-05-02T17:23:24.829Z,99832.32
2019-05-02T17:25:56.382Z,99841.59
2019-05-02T17:28:28.346Z,99841.04
2019-05-02T17:31:00.402Z,99840.34
2019-05-02T17:33:32.428Z,99844.48
2019-05-02T17:36:04.124Z,99852.30
2019-05-02T17:38:39.048Z,99855.86
2019-05-02T17:41:13.213Z,99859.06
2019-05-02T17:43:45.916Z,99867.94
2019-05-02T17:46:21.938Z,99869.17
2019-05-02T17:48:53.988Z,99878.22
2019-05-02T17:51:37.515Z,99879.61
2019-05-02T17:54:08.799Z,99884.80
2019-05-02T17:56:42.064Z,99882.39
2019-05-02T17:59:17.069Z,99880.88
2019-05-02T18:01:48.616Z,99893.67
2019-05-02T18:04:21.538Z,99895.23
2019-05-02T18:06:55.092Z,99897.53
2019-05-02T18:09:26.320Z,99901.16
2019-05-02T18:11:57.489Z,99901.39
2019-05-02T18:14:30.197Z,99906.34
2019-05-02T18:17:02.315Z,99908.27
2019-05-02T18:19:35.585Z,99907.42
2019-05-02T18:22:22.457Z,99906.58
2019-05-02T18:24:46.472Z,99910.50
2019-05-02T18:27:17.370Z,99910.34
2019-05-02T18:29:51.533Z,99909.49
2019-05-02T18:32:26.116Z,99916.13
2019-05-02T18:35:04.330Z,99924.39
2019-05-02T18:37:37.235Z,99923.14
2019-05-02T18:40:07.809Z,99922.77
2019-05-02T18:42:38.834Z,99923.74
2019-05-02T18:45:28.572Z,99923.98
2019-05-02T18:48:05.176Z,99928.45
2019-05-02T18:50:46.375Z,99940.09
2019-05-02T18:53:18.506Z,99937.42
2019-05-02T18:55:51.833Z,99944.37
2019-05-02T18:58:26.789Z,99941.83
2019-05-02T19:00:58.090Z,99945.83
2019-05-02T19:03:33.357Z,99945.22
2019-05-02T19:06:03.957Z,99951.20
2019-05-02T19:08:46.829Z,99943.66
2019-05-02T19:11:12.625Z,99937.80
2019-05-02T19:13:46.001Z,99934.89
2019-05-02T19:16:23.865Z,99925.40
2019-05-02T19:18:57.156Z,99932.41
2019-05-02T19:21:30.833Z,99932.94
2019-05-02T19:24:02.336Z,99936.80
2019-05-02T19:26:35.417Z,99935.02
2019-05-02T19:29:17.174Z,99927.88
2019-05-02T19:31:47.528Z,99932.65
2019-05-02T19:34:22.756Z,99931.80
2019-05-02T19:36:52.886Z,99938.87
2019-05-02T19:39:26.118Z,99945.82
2019-05-02T19:42:01.621Z,99939.51
2019-05-02T19:44:34.146Z,99927.02
2019-05-02T19:47:08.448Z,99936.64
2019-05-02T19:49:42.372Z,99937.11
2019-05-02T19:52:12.861Z,99938.80
2019-05-02T19:54:43.757Z,99944.14
2019-05-02T19:57:17.209Z,99951.14
2019-05-02T19:59:49.057Z,99951.84
2019-05-02T20:02:19.752Z,99956.67
2019-05-02T20:04:52.060Z,99961.38
2019-05-02T20:07:26.145Z,99963.53
2019-05-02T20:09:59.235Z,99966.61
2019-05-02T20:12:31.403Z,99963.53
2019-05-02T20:15:03.872Z,99962.05
2019-05-02T20:17:34.350Z,99957.81
2019-05-02T20:20:14.449Z,99967.37
2019-05-02T20:22:46.310Z,99968.06
2019-05-02T20:25:17.143Z,99967.83
2019-05-02T20:27:48.215Z,99966.31
2019-05-02T20:30:22.502Z,99965.36
2019-05-02T20:32:55.584Z,99961.59
2019-05-02T20:35:28.270Z,99965.64
2019-05-02T20:37:59.145Z,99972.11
2019-05-02T20:40:33.432Z,99963.95
2019-05-02T20:43:05.278Z,99968.49
2019-05-02T20:45:37.353Z,99958.24
2019-05-02T20:48:08.805Z,99959.91
2019-05-02T20:50:43.004Z,99962.18
2019-05-02T20:53:14.817Z,99967.72
2019-05-02T20:55:45.491Z,99963.56
2019-05-02T20:58:16.530Z,99965.10
2019-05-02T21:01:04.750Z,99977.89
2019-05-02T21:03:23.624Z,99979.78
2019-05-02T21:06:06.299Z,99974.66
2019-05-02T21:08:57.963Z,99985.02
2019-05-02T21:11:29.910Z,99979.85
2019-05-02T21:14:01.720Z,99987.24
2019-05-02T21:16:35.993Z,99973.65
2019-05-02T21:19:07.547Z,99977.30
2019-05-02T21:21:42.528Z,99966.75
2019-05-02T21:24:14.438Z,99969.87
2019-05-02T21:26:46.305Z,99978.38
2019-05-02T21:29:17.548Z,99968.45
2019-05-02T21:31:51.966Z,99966.80
2019-05-02T21:34:23.102Z,99970.95
2019-05-02T21:36:53.972Z,99966.75
2019-05-02T21:39:24.667Z,99971.22
2019-05-02T21:41:57.755Z,99970.17
2019-05-02T21:44:34.253Z,99970.17
2019-05-02T21:47:05.941Z,99970.41
2019-05-02T21:49:47.331Z,99973.53
2019-05-02T21:52:22.581Z,99974.92
2019-05-02T21:54:57.219Z,99977.89
2019-05-02T21:57:27.854Z,99975.08
2019-05-02T22:00:02.415Z,99969.64
2019-05-02T22:02:34.031Z,99976.50
2019-05-02T22:05:06.378Z,99984.90
2019-05-02T22:07:37.168Z,99999.27
2019-05-02T22:10:08.871Z,100007.13
2019-05-02T22:12:39.326Z,100002.12
2019-05-02T22:15:12.746Z,100007.40
2019-05-02T22:17:45.089Z,100002.00
2019-05-02T22:20:18.676Z,99992.45
2019-05-02T22:22:52.031Z,99990.06
2019-05-02T22:25:24.342Z,99984.20
2019-05-02T22:27:55.451Z,99965.17
2019-05-02T22:30:27.641Z,99965.25
2019-05-02T22:33:02.666Z,99967.83
2019-05-02T22:35:32.811Z,99961.05
2019-05-02T22:38:24.621Z,99953.19
2019-05-02T22:40:57.991Z,99943.78
2019-05-02T22:43:29.715Z,99945.06
2019-05-02T22:46:00.920Z,99944.81
2019-05-02T22:48:32.470Z,99952.06
2019-05-02T22:51:05.152Z,99955.70
2019-05-02T22:53:36.601Z,99957.09
2019-05-02T22:56:13.214Z,99954.22
2019-05-02T22:58:44.620Z,99965.94
2019-05-02T23:01:16.273Z,99975.36
2019-05-02T23:03:49.553Z,99989.99
2019-05-02T23:06:22.456Z,99998.42
2019-05-02T23:08:55.389Z,99998.63
2019-05-02T23:11:27.805Z,99989.01
2019-05-02T23:14:01.782Z,99991.17
2019-05-02T23:16:34.648Z,99981.98
2019-05-02T23:19:07.717Z,99985.47
2019-05-02T23:21:41.917Z,99988.25
2019-05-02T23:24:14.769Z,99983.61
2019-05-02T23:26:51.817Z,99973.38
2019-05-02T23:29:24.128Z,99973.27
2019-05-02T23:31:55.010Z,99966.34
2019-05-02T23:34:27.060Z,99968.48
2019-05-02T23:36:57.667Z,99974.33
2019-05-02T23:39:28.883Z,99964.92
2019-05-02T23:42:03.621Z,99956.89
2019-05-02T23:44:35.171Z,99954.86
2019-05-02T23:47:07.504Z,99953.55
2019-05-02T23:49:38.529Z,99948.13
2019-05-02T23:52:11.743Z,99942.73
2019-05-02T23:54:50.087Z,99941.03
2019-05-02T23:57:16.951Z,99953.20
2019-05-02T23:59:51.794Z,99955.52
